»·PEaware :: N732SG KWHP-KPSP

N732SG :: KWHP-KPSP

FLIGHT INFORMATION

Flight Status: Arrived
Operator: Privately registered:
United States
More flights under this callsign
Pilot: Scott G. (88)
Aircraft: CESSNA 172 SKYHAWK
(C172)
More flights by this aircraft type
Origin: KWHP Whiteman
United States
Destination: KPSP Palm Springs Intl
United States
More flights between these airports :: More routes between these airports
Route: VNY PDZ DEWAY DCT
File this flight plan on PilotEdge
Remarks:
Altitude:
(Current/Filed)
7,500ft
Speed:
(Current/Filed)
110kts
Departed: 18-May-17 09:42 AM
Arrived: 18-May-17 10:45 AM
Distance/Time
Traveled:
98nm/1:03
Distance/Time
To Go:
Arrived

Flight Plot

Page will automatically refresh every two minutes.

Flight plan parsing failed; only flown route is shown


Map Options




Map Legend


Flown Route
Filed Route
Departure Airport
Arrival Airport
Navaid (VOR, NDB)
Fix

Horizontal Profiles

Position Reports

Time Latitude Longitude Heading Altitude Ground
Speed
18-May-17 08:47 34.259569 -118.412128 283 1004ft 0kts
18-May-17 08:48 34.259569 -118.412128 283 1004ft 0kts
18-May-17 08:49 34.259569 -118.412128 283 1004ft 0kts
18-May-17 08:50 34.259569 -118.412128 283 1004ft 0kts
18-May-17 08:51 34.259569 -118.412128 283 1004ft 0kts
18-May-17 08:52 34.259569 -118.412128 283 1004ft 0kts
18-May-17 08:53 34.259569 -118.412128 283 1004ft 0kts
18-May-17 08:54 34.259569 -118.412128 283 1004ft 0kts
18-May-17 08:55 34.259569 -118.412128 283 1004ft 0kts
18-May-17 08:56 34.259569 -118.412128 283 1004ft 0kts
18-May-17 08:57 34.259569 -118.412128 283 1004ft 0kts
18-May-17 08:58 34.259569 -118.412128 283 1004ft 0kts
18-May-17 08:59 34.259569 -118.412128 283 1004ft 0kts
18-May-17 09:00 34.259569 -118.412128 283 1004ft 0kts
18-May-17 09:01 34.259569 -118.412128 283 1004ft 0kts
18-May-17 09:02 34.259569 -118.412128 283 1004ft 0kts
18-May-17 09:03 34.259569 -118.412128 283 1004ft 0kts
18-May-17 09:04 34.259569 -118.412128 283 1004ft 0kts
18-May-17 09:05 34.259569 -118.412128 283 1004ft 0kts
18-May-17 09:06 34.259569 -118.412128 283 1004ft 0kts
18-May-17 09:07 34.259569 -118.412128 283 1004ft 0kts
18-May-17 09:08 34.259569 -118.412128 283 1004ft 0kts
18-May-17 09:09 34.259569 -118.412128 283 1004ft 0kts
18-May-17 09:10 34.259569 -118.412128 283 1004ft 0kts
18-May-17 09:11 34.259569 -118.412128 283 1004ft 0kts
18-May-17 09:12 34.259569 -118.412128 283 1004ft 0kts
18-May-17 09:13 34.259569 -118.412128 283 1004ft 0kts
18-May-17 09:14 34.259569 -118.412128 283 1004ft 0kts
18-May-17 09:15 34.259569 -118.412128 283 1004ft 0kts
18-May-17 09:16 34.259569 -118.412128 283 1004ft 0kts
18-May-17 09:17 34.259569 -118.412128 283 1004ft 0kts
18-May-17 09:18 34.259569 -118.412128 283 1004ft 0kts
18-May-17 09:19 34.259569 -118.412128 283 1004ft 0kts
18-May-17 09:20 34.259569 -118.412128 283 1004ft 0kts
18-May-17 09:21 34.259569 -118.412128 283 1004ft 0kts
18-May-17 09:22 34.259569 -118.412128 283 1004ft 0kts
18-May-17 09:23 34.259569 -118.412128 283 1004ft 0kts
18-May-17 09:24 34.259569 -118.412128 283 1004ft 0kts
18-May-17 09:25 34.259569 -118.412128 283 1004ft 0kts
18-May-17 09:26 34.259569 -118.412128 283 1004ft 0kts
18-May-17 09:27 34.259569 -118.412128 283 1004ft 0kts
18-May-17 09:28 34.259570 -118.412128 283 1004ft 0kts
18-May-17 09:29 34.259570 -118.412128 283 1004ft 0kts
18-May-17 09:30 34.259570 -118.412128 283 1004ft 0kts
18-May-17 09:31 34.259570 -118.412128 283 1004ft 0kts
18-May-17 09:32 34.259570 -118.412128 283 1004ft 0kts
18-May-17 09:33 34.259570 -118.412128 283 1004ft 0kts
18-May-17 09:34 34.259570 -118.412128 283 1004ft 0kts
18-May-17 09:35 34.259428 -118.412567 238 1004ft 0kts
18-May-17 09:36 34.259362 -118.412691 242 1004ft 4kts
18-May-17 09:37 34.261870 -118.415504 318 1004ft 16kts
18-May-17 09:38 34.263829 -118.417520 195 1004ft 0kts
18-May-17 09:39 34.263830 -118.417520 196 1004ft 0kts
18-May-17 09:40 34.263830 -118.417520 196 1004ft 0kts
18-May-17 09:41 34.263830 -118.417520 196 1004ft 0kts
18-May-17 09:42 34.263830 -118.417520 196 1004ft 0kts
18-May-17 09:43 34.263788 -118.417557 221 1004ft 0kts
18-May-17 09:44 34.260932 -118.415323 137 1020ft 69kts
18-May-17 09:45 34.245714 -118.396507 131 1761ft 89kts
18-May-17 09:46 34.230091 -118.374771 131 2276ft 108kts
18-May-17 09:47 34.209135 -118.345926 131 2354ft 118kts
18-May-17 09:48 34.188096 -118.316962 131 2354ft 114kts
18-May-17 09:49 34.166982 -118.287903 131 2358ft 117kts
18-May-17 09:50 34.150131 -118.255998 111 2361ft 115kts
18-May-17 09:51 34.138867 -118.220492 110 2560ft 105kts
18-May-17 09:52 34.129040 -118.189318 109 3246ft 98kts
18-May-17 09:53 34.119458 -118.158978 108 3938ft 96kts
18-May-17 09:54 34.110030 -118.129117 108 4636ft 95kts
18-May-17 09:55 34.100318 -118.098341 107 5243ft 100kts
18-May-17 09:56 34.090334 -118.066781 107 5802ft 105kts
18-May-17 09:57 34.079737 -118.033349 107 6309ft 108kts
18-May-17 09:58 34.068338 -117.997414 107 6548ft 123kts
18-May-17 09:59 34.057735 -117.964164 107 6544ft 120kts
18-May-17 10:00 34.045799 -117.926690 107 6528ft 121kts
18-May-17 10:01 34.033769 -117.888932 107 6513ft 120kts
18-May-17 10:02 34.021811 -117.851426 107 6511ft 120kts
18-May-17 10:03 34.009684 -117.813369 108 6509ft 123kts
18-May-17 10:04 33.997360 -117.774777 108 6507ft 124kts
18-May-17 10:05 33.984973 -117.736036 108 6506ft 124kts
18-May-17 10:06 33.972501 -117.697112 108 6506ft 124kts
18-May-17 10:07 33.960018 -117.658203 108 6581ft 120kts
18-May-17 10:08 33.948515 -117.622368 107 6978ft 112kts
18-May-17 10:09 33.937376 -117.587685 107 7379ft 111kts
18-May-17 10:10 33.926049 -117.552457 107 7695ft 114kts
18-May-17 10:11 33.919788 -117.516369 82 8008ft 110kts
18-May-17 10:12 33.921222 -117.475163 83 7710ft 127kts
18-May-17 10:13 33.922740 -117.435458 82 7511ft 118kts
18-May-17 10:14 33.924369 -117.395145 82 7508ft 122kts
18-May-17 10:15 33.925990 -117.354317 81 7506ft 122kts
18-May-17 10:16 33.927600 -117.314391 82 7506ft 122kts
18-May-17 10:17 33.928810 -117.284128 83 7507ft 124kts
18-May-17 10:18 33.928908 -117.280858 80 7488ft 127kts
18-May-17 10:19 33.929684 -117.264418 86 7496ft 120kts
18-May-17 10:20 33.930391 -117.245695 82 7510ft 119kts
18-May-17 10:21 33.930899 -117.231199 84 7505ft 117kts
18-May-17 10:22 33.932095 -117.200179 84 7516ft 117kts
18-May-17 10:23 33.933391 -117.174010 87 7579ft 114kts
18-May-17 10:24 33.933970 -117.157407 88 7576ft 116kts
18-May-17 10:25 33.934755 -117.133695 86 7574ft 117kts
18-May-17 10:26 33.935416 -117.114832 87 7575ft 116kts
18-May-17 10:27 33.936810 -117.075838 87 7574ft 116kts
18-May-17 10:28 33.938127 -117.036651 86 7539ft 119kts
18-May-17 10:29 33.939195 -116.997826 85 7316ft 118kts
18-May-17 10:30 33.940245 -116.976063 86 7087ft 122kts
18-May-17 10:31 33.941175 -116.951553 83 6795ft 126kts
18-May-17 10:32 33.942818 -116.909139 83 6306ft 127kts
18-May-17 10:33 33.940859 -116.867613 97 5937ft 121kts
18-May-17 10:34 33.934716 -116.826391 97 5563ft 132kts
18-May-17 10:35 33.928809 -116.782502 97 5069ft 132kts
18-May-17 10:36 33.923602 -116.738558 97 4472ft 134kts
18-May-17 10:37 33.919110 -116.693897 97 3776ft 134kts
18-May-17 10:38 33.915303 -116.649331 97 2878ft 132kts
18-May-17 10:39 33.902990 -116.611032 132 2178ft 117kts
18-May-17 10:40 33.882803 -116.585513 139 1803ft 112kts
18-May-17 10:41 33.859688 -116.561572 141 1545ft 102kts
18-May-17 10:42 33.837909 -116.540479 147 1661ft 101kts
18-May-17 10:43 33.818953 -116.524830 142 1501ft 69kts
18-May-17 10:44 33.806737 -116.512560 145 1405ft 67kts
18-May-17 10:45 33.805989 -116.495258 22 1034ft 71kts
18-May-17 10:46 33.820236 -116.499133 317 525ft 60kts
18-May-17 10:47 33.828812 -116.508016 264 481ft 22kts
18-May-17 10:48 33.828782 -116.508381 262 481ft 0kts
18-May-17 10:49 33.828671 -116.508943 257 481ft 8kts
18-May-17 10:50 33.829119 -116.510899 263 481ft 0kts

Navigation Log

Ident Type
Flight plan parsing failed, navigation log unavailable